LPPTLPBJ

Guest
Details From LPPT - Lisboa
To LPBJ - BEJA
Flight Number -
Tags generated
Created
Modified
Stats Distance 71 nm / 131 km
Max Altitude 4,000 ft / 1,219 m
Waypoints 3
Social Downloads 9
Likes 0
Share VATSIM

Download

Looking for another format? Having issues loading an existing format? Contact us
Advertisement - Login to hide

Notes

Basic altitude profile: - Ascent Rate: 2500ft/min - Ascent Speed: 250kts - Cruise Altitude: 35000ft - Cruise Speed: 420kts - Descent Rate: 1500ft/min - Descent Speed: 250kts Options: - Use NATs: yes - Use PACOTS: yes - Use low airways: yes - Use high airways: yes

Route

LPPT SOTEX LPBJ

ID Type Via Altitude Latitude Longitude Leg Dist Tot Dist Heading (true) Name
O LPPT APT - 0 ft / 0 m 38.77856˚ -9.13515˚ - 0 nm - Lisboa
SOTEX FIX - 4,000 ft / 1,219 m 38.29278˚ -8.22000˚ 51 nm 51 nm 124° / 124° -
O LPBJ APT - 0 ft / 0 m 38.07878˚ -7.93118˚ 18 nm 70 nm 133° / 133° BEJA

Altitude Profile

Advertisement - Login to hide

LPPT

Details ICAO LPPT (LIS)
Name Lisboa
Region Portugal
Timezone Europe/Lisbon (UTC+0.0)
Stats Elevation 374 ft / 114 m (AMSL)
Location 38.778559° -9.135146°
Runways 2
Magnetic Variation 2.363° W

METAR

LPPT 172200Z 33007KT CAVOK 08/03 Q1032

Decode

TAF

TAF LPPT 171700Z 1718/1824 05008KT CAVOK PROB30 1718/1801 35008KT BECMG 1818/1820 35007KT

Decode

Departure Runways

ID Width Length Bearing (true) Bearing (mag) Surface Threshold Offset Overrun Length
03 148 ft / 45 m 12,518 ft / 3,815 m 22.70° 25.06° Asphalt 296 ft / 90 m 0 ft / 0 m
17 148 ft / 45 m 7,922 ft / 2,415 m 168.38° 170.74° Asphalt 0 ft / 0 m 0 ft / 0 m
21 148 ft / 45 m 12,518 ft / 3,815 m 202.72° 205.08° Asphalt 1,969 ft / 600 m 0 ft / 0 m
35 148 ft / 45 m 7,922 ft / 2,415 m 348.38° 350.74° Asphalt 492 ft / 150 m 0 ft / 0 m

LPBJ

Details ICAO LPBJ
Name BEJA
Region Portugal
Timezone Europe/Lisbon (UTC+0.0)
Stats Elevation 636 ft / 194 m (AMSL)
Location 38.078784° -7.931182°
Runways 2
Magnetic Variation 1.946° W

METAR

LPBJ 172200Z 03004KT CAVOK 04/01 Q1032

Decode

TAF

TAF LPBJ 171705Z 1718/1818 04005KT CAVOK

Decode

Destination Runways

ID Width Length Bearing (true) Bearing (mag) Surface Threshold Offset Overrun Length
01L 197 ft / 60 m 11,341 ft / 3,457 m 5.90° 7.85° Concrete 0 ft / 0 m 902 ft / 275 m
01R 98 ft / 30 m 9,699 ft / 2,956 m 5.91° 7.86° Concrete 0 ft / 0 m 804 ft / 245 m
19L 98 ft / 30 m 9,699 ft / 2,956 m 185.91° 187.86° Concrete 0 ft / 0 m 833 ft / 254 m
19R 197 ft / 60 m 11,341 ft / 3,457 m 185.90° 187.85° Concrete 0 ft / 0 m 902 ft / 275 m

Approach Navaids

Runway Type Ident Frequency Range Bearing (true) Bearing (mag) Slope Elevation
19R Localiser BJ 110.30 MHz 18 nm / 33 km 185.90° 187.85° - 628 ft / 191 m (AMSL)
19R Glidescope BJ 110.30 MHz 10 nm / 19 km 185.90° 187.85° 3.00° 625 ft / 191 m (AMSL)

Popular Alternatives